Pagrindinis puslapis
METAR-TAF:

METAR-TAF

Oro uostai :

Vijayawada, Indija

platuma: 16-31-44N, ilguma: 80-47-45E, Aukštis: 25 m

Dabartinis oras

Ataskaita buvo paskelbta 24 minutes, ne 10:00 UTC
Vėjas 5 kt iš Pietų
Temperatūra 39°C
Drėgmė 48%
Slėgis 1004 hPa
Matomumas: 8000 m
Išsisklaidę debesys ne aukštis 2000 ft

METAR: VOBZ 311000Z 18005KT 8000 SCT020 39/26 Q1004 NOSIG

Laikas: 15:54 (10:24 UTC)

Prognozė

Ataskaita buvo paskelbta 2 valandos ir 24 minutes, ne 08:00 UTC
Prognozė galioja nuo 31 metu 09 UTC su 31 metu 18 UTC
Vėjas 7 kt iš Pietų/Pietryčių
Matomumas: 6000 m
Mažai debesys ne aukštis 1500 ft
Išsisklaidę debesys ne aukštis 2500 ft
Laikinai
nuo 31 metu 11 UTC su 31 metu 15 UTC
Mažai debesys ne aukštis 3000 ft, Liūtiniai kamuoliniai debesys.
Tapsmas
nuo 31 metu 15 UTC su 31 metu 16 UTC
Vėjas 5 kt iš Rytų/Pietryčių
Matomumas: 4000 m
Išsisklaidę debesys ne aukštis 2000 ft
migla

TAF: VOBZ 310800Z 3109/3118 16007KT 6000 FEW015 SCT025 TEMPO 3111/3115 FEW030CB BECMG 3115/3116 11005KT 4000 HZ SCT020

Orai ataskaitas ir orų prognozės (METAR, TAF).

turimą stotys yra geltonos ir raudonos taškus žemėlapyje.

Perkelti pele per norėdami pamatyti stoties vardą.

Tada spustelėkite, norėdami matyti oro stebėjimo ir prognozės.

Norėdami pakeisti žemėlapį: spustelėkite ant žalios mygtukų su juodo kryžiaus žemyn,; žalią mygtuką su brūkšneliu, jei norite nutolinti; arba žalių rodyklių gretimoms žemėlapius.


METAR-TAF: